Webkamera Lisätietoa Webcam


Yksityisiä sääasemia lähellä:

Sääasema Orivesi

Sääasema Muurame

Sääasema Jyväskylä

Sääasema Vihtavuori


Löydät sääaseman tiedot myös:

Finland Weather Exchange

European Weather Network

Weather Underground

AWEKAS

Windy.com

HAMweather, WeatherForYou, PWS Weather



Säätiedot lähimmiltä METAR asemilta

   
EFHA - Halli (Fin-Afb), Finland
Etäisyys asemalta: Kaakko 25 km
Päivitetty: 23.06.2024 19:20
Selkeää  
Selkeää  
   Tuuli: Itä 2.1 m/s
Tuuli: Itä 2.1 m/s
Lämpötila: 22°C
Kastepiste: 7°C
Kosteus: 38%
Ilmanpaine: 1010 hPa
Näkyvyys: Enemmän kuin 10 km
Pilvitiedot: Selkeää
EFHA 231620Z AUTO 10004KT CAVOK 22/07 Q1010
EFJY - Jyvaskyla (Mil/Civ), Finland
Etäisyys asemalta: Koillinen 75 km
Päivitetty: 23.06.2024 19:50
Selkeää  
Selkeää  
   Tuuli: Vaihtelee 1 m/s
Tuuli: Vaihtelee 1 m/s
Lämpötila: 21°C
Kastepiste: 7°C
Kosteus: 40%
Ilmanpaine: 1011 hPa
Näkyvyys: Enemmän kuin 10 km
Pilvitiedot: Selkeää
EFJY 231650Z AUTO VRB02KT CAVOK 21/07 Q1011
EFTP - Tampere/Pirkkala, Finland
Etäisyys asemalta: Lounas 81 km
Päivitetty: 23.06.2024 19:50
Selkeää  
Selkeää  
   Tuuli: Länsiluode 1.5 m/s
Tuuli: Länsiluode 1.5 m/s
Lämpötila: 22°C
Kastepiste: 9°C
Kosteus: 44%
Ilmanpaine: 1010 hPa
Näkyvyys: Enemmän kuin 10 km
Pilvitiedot: Selkeää
EFTP 231650Z AUTO 30003KT CAVOK 22/09 Q1010
EFSI - Seinajoki-Ilmajoki, Finland
Etäisyys asemalta: Luode 114 km
Päivitetty: 23.06.2024 19:50
Selkeää  
Selkeää  
   Tuuli: Länsiluode 5.1 m/s
Tuuli: Länsiluode 5.1 m/s
Lämpötila: 18°C
Kastepiste: 10°C
Kosteus: 60%
Ilmanpaine: 1011 hPa
Näkyvyys: Enemmän kuin 10 km
Pilvitiedot: Selkeää
EFSI 231650Z AUTO 29010KT 230V320 CAVOK 18/10 Q1011
EFUT - Utti (Fin-Afb), Finland
Etäisyys asemalta: Kaakko 180 km
Päivitetty: 23.06.2024 19:50
Selkeää  
Selkeää  
   Tuuli: Itäkaakko 1.5 m/s
Tuuli: Itäkaakko 1.5 m/s
Lämpötila: 22°C
Kastepiste: 7°C
Kosteus: 38%
Ilmanpaine: 1010 hPa
Näkyvyys: Enemmän kuin 10 km
Pilvitiedot: Selkeää
EFUT 231650Z AUTO 12003KT 070V150 CAVOK 22/07 Q1010
EFVA - Vaasa, Finland
Etäisyys asemalta: Luode 180 km
Päivitetty: 23.06.2024 19:50
Heikkoja sadekuuroja, Sade, Ukkosta  
Heikkoja sadekuuroja, Sade, Ukkosta  
   Tuuli: Vaihtelee 1 m/s
Tuuli: Vaihtelee 1 m/s
Lämpötila: 17°C
Kastepiste: 12°C
Kosteus: 73%
Ilmanpaine: 1011 hPa
Pilvisyys: Ukkosta
Näkyvyys: Enemmän kuin 10 km
Pilvitiedot: Ukkosta
EFVA 231650Z AUTO VRB02KT 9999 -SHRA //////CB 17/12 Q1011
EFHK - Helsinki/Vantaa, Finland
Etäisyys asemalta: Etelä 191 km
Päivitetty: 23.06.2024 19:50
Selkeää  
Selkeää  
   Tuuli: Itäkaakko 3.6 m/s
Tuuli: Itäkaakko 3.6 m/s
Lämpötila: 22°C
Kastepiste: 6°C
Kosteus: 36%
Ilmanpaine: 1010 hPa
Näkyvyys: Enemmän kuin 10 km
Pilvitiedot: Selkeää
EFHK 231650Z 12007KT 080V140 CAVOK 22/06 Q1010 NOSIG
  

Alkuperäinen skripti  Saratoga-weather.org Sovitettu myös templatelle  Weerstation Leuven

Laitteet joita käytämme:

Sääasema
Davis VP2

Sääasemaohjelma
Cumulus

Sääaseman palvelin
HP ProBook 6460b

Palveluntarjoaja
Radicenter

Davis VP2

Cumulus

HP ProBook 6460b

Radicenter




Flag Counter Cumulus Top Sites